Time;durP1;ratioP1;P1;durP2;ratioP2;P2;SDS_P1;SDS_P2;PMS_P1;PMS_P2;Temp;Humidity;BMP_temperature;BMP_pressure;BME280_temperature;BME280_humidity;BME280_pressure;Samples;Min_cycle;Max_cycle;Signal;HPM_P1;HPM_P2
2024/01/18 00:01:50;;;;;;;7.82;2.30;;;;;;;;;;4961952;28;92188;-79
2024/01/18 00:04:16;;;;;;;8.40;2.22;;;;;;;;;;4960980;28;94703;-79
2024/01/18 00:06:43;;;;;;;7.35;2.50;;;;;;;;;;4945246;28;94361;-79
2024/01/18 00:09:10;;;;;;;6.80;2.30;;;;;;;;;;4964113;28;92104;-79
2024/01/18 00:11:36;;;;;;;7.10;2.50;;;;;;;;;;4969771;28;92313;-77
2024/01/18 00:14:03;;;;;;;6.70;2.50;;;;;;;;;;4983615;28;92803;-79
2024/01/18 00:16:29;;;;;;;6.15;2.03;;;;;;;;;;4967550;28;92525;-78
2024/01/18 00:18:56;;;;;;;9.05;2.50;;;;;;;;;;4981639;28;94292;-79
2024/01/18 00:21:22;;;;;;;5.47;2.20;;;;;;;;;;4984105;28;92057;-78
2024/01/18 00:23:49;;;;;;;7.53;2.60;;;;;;;;;;4982111;28;92250;-78
2024/01/18 00:26:16;;;;;;;6.95;2.20;;;;;;;;;;4966810;28;92707;-78
2024/01/18 00:28:42;;;;;;;6.50;2.22;;;;;;;;;;4962139;28;95028;-78
2024/01/18 00:31:09;;;;;;;6.65;2.30;;;;;;;;;;4963145;28;95204;-78
2024/01/18 00:33:35;;;;;;;6.20;2.40;;;;;;;;;;4962935;28;92464;-77
2024/01/18 00:36:02;;;;;;;6.55;2.38;;;;;;;;;;4955085;28;92581;-78
2024/01/18 00:38:29;;;;;;;4.97;2.15;;;;;;;;;;4944954;28;93148;-79
2024/01/18 00:40:55;;;;;;;5.55;2.10;;;;;;;;;;4961498;28;93322;-79
2024/01/18 00:43:22;;;;;;;4.20;1.83;;;;;;;;;;4962724;28;92307;-80
2024/01/18 00:45:48;;;;;;;6.70;2.08;;;;;;;;;;4945743;28;93913;-80
2024/01/18 00:48:15;;;;;;;5.40;2.03;;;;;;;;;;4961851;28;92654;-79
2024/01/18 00:50:41;;;;;;;6.22;2.20;;;;;;;;;;4961319;28;92194;-78
2024/01/18 00:53:08;;;;;;;7.32;2.20;;;;;;;;;;4960144;28;95479;-78
2024/01/18 00:55:37;;;;;;;5.25;2.08;;;;;;;;;;4966993;28;92098;-77
2024/01/18 00:58:04;;;;;;;7.28;2.28;;;;;;;;;;4986487;28;92024;-77
2024/01/18 01:00:30;;;;;;;5.95;2.20;;;;;;;;;;4973824;28;92703;-77
2024/01/18 01:02:57;;;;;;;15.93;2.40;;;;;;;;;;4964117;28;94528;-78
2024/01/18 01:05:23;;;;;;;6.70;2.75;;;;;;;;;;4964060;28;93385;-77
2024/01/18 01:07:50;;;;;;;9.23;2.63;;;;;;;;;;4959191;28;92588;-77
2024/01/18 01:10:17;;;;;;;6.72;2.42;;;;;;;;;;4945147;28;92436;-77
2024/01/18 01:12:43;;;;;;;8.15;2.53;;;;;;;;;;4976788;28;93960;-78
2024/01/18 01:15:10;;;;;;;5.97;2.35;;;;;;;;;;4984278;28;92050;-79
2024/01/18 01:17:37;;;;;;;6.35;2.38;;;;;;;;;;4982846;28;94765;-78
2024/01/18 01:20:04;;;;;;;6.82;2.50;;;;;;;;;;4985787;28;95390;-79
2024/01/18 01:22:32;;;;;;;4.78;2.10;;;;;;;;;;4967263;28;99602;-78
2024/01/18 01:24:59;;;;;;;5.93;2.30;;;;;;;;;;4964457;28;92737;-78
2024/01/18 01:27:25;;;;;;;6.70;2.50;;;;;;;;;;4963934;28;92409;-78
2024/01/18 01:29:52;;;;;;;6.10;2.17;;;;;;;;;;4962573;28;100541;-79
2024/01/18 01:32:19;;;;;;;10.43;2.60;;;;;;;;;;4962687;28;94051;-79
2024/01/18 01:34:45;;;;;;;7.30;2.40;;;;;;;;;;4960208;28;92209;-79
2024/01/18 01:37:13;;;;;;;5.60;2.28;;;;;;;;;;4963467;28;92098;-79
2024/01/18 01:39:40;;;;;;;6.25;2.10;;;;;;;;;;4964037;28;92913;-78
2024/01/18 01:42:07;;;;;;;7.93;2.47;;;;;;;;;;4963755;28;94528;-78
2024/01/18 01:44:33;;;;;;;6.68;2.33;;;;;;;;;;4963697;28;92865;-78
2024/01/18 01:47:00;;;;;;;6.28;2.08;;;;;;;;;;4962152;28;92612;-78
2024/01/18 01:49:27;;;;;;;6.43;2.20;;;;;;;;;;4963569;28;92121;-78
2024/01/18 01:51:53;;;;;;;5.53;2.10;;;;;;;;;;4961711;28;95360;-78
2024/01/18 01:54:20;;;;;;;6.07;2.10;;;;;;;;;;4963222;28;92281;-79
2024/01/18 01:56:49;;;;;;;7.32;2.30;;;;;;;;;;4961546;28;97789;-79
2024/01/18 01:59:16;;;;;;;5.85;2.20;;;;;;;;;;4962734;28;94715;-78
2024/01/18 02:01:44;;;;;;;6.00;2.08;;;;;;;;;;4963842;28;92752;-79
2024/01/18 02:04:11;;;;;;;4.85;1.90;;;;;;;;;;4966504;28;92724;-78
2024/01/18 02:06:39;;;;;;;7.20;2.00;;;;;;;;;;4961246;28;94545;-79
2024/01/18 02:09:06;;;;;;;5.97;1.90;;;;;;;;;;4962354;28;95124;-79
2024/01/18 02:11:33;;;;;;;7.25;1.80;;;;;;;;;;4969592;28;92623;-77
2024/01/18 02:14:00;;;;;;;6.47;1.83;;;;;;;;;;4983266;28;92435;-79
2024/01/18 02:16:26;;;;;;;9.00;2.25;;;;;;;;;;4982025;28;92489;-80
2024/01/18 02:18:53;;;;;;;5.03;1.75;;;;;;;;;;4966205;28;95544;-79
2024/01/18 02:21:20;;;;;;;4.28;1.73;;;;;;;;;;4961901;28;92430;-79
2024/01/18 02:23:48;;;;;;;5.85;2.15;;;;;;;;;;4964775;28;94758;-79
2024/01/18 02:26:15;;;;;;;5.22;1.70;;;;;;;;;;4960871;28;92493;-77
2024/01/18 02:28:54;;;;;;;6.63;1.90;;;;;;;;;;4944404;28;96682;-78
2024/01/18 02:31:21;;;;;;;5.57;1.75;;;;;;;;;;4943123;28;98076;-78
2024/01/18 02:33:47;;;;;;;6.03;1.92;;;;;;;;;;4963417;28;92407;-78
2024/01/18 02:36:15;;;;;;;5.70;2.00;;;;;;;;;;4961451;28;92691;-78
2024/01/18 02:38:42;;;;;;;4.43;1.60;;;;;;;;;;4960826;28;92821;-79
2024/01/18 02:41:08;;;;;;;6.13;1.92;;;;;;;;;;4961919;28;91910;-78
2024/01/18 02:43:35;;;;;;;4.40;1.65;;;;;;;;;;4946048;28;95302;-79
2024/01/18 02:46:01;;;;;;;6.20;1.80;;;;;;;;;;4965487;28;94262;-79
2024/01/18 02:48:28;;;;;;;4.90;1.80;;;;;;;;;;4963528;28;92997;-80
2024/01/18 02:50:55;;;;;;;5.47;1.60;;;;;;;;;;4962751;28;93072;-80
2024/01/18 02:53:21;;;;;;;4.80;1.63;;;;;;;;;;4962890;28;92401;-79
2024/01/18 02:55:49;;;;;;;6.28;1.73;;;;;;;;;;4966857;28;95383;-80
2024/01/18 02:58:16;;;;;;;5.95;1.50;;;;;;;;;;4982268;28;92157;-79
2024/01/18 03:00:42;;;;;;;4.65;1.50;;;;;;;;;;4970062;28;92462;-78
2024/01/18 03:03:09;;;;;;;5.35;1.60;;;;;;;;;;4960644;28;95127;-77
2024/01/18 03:05:35;;;;;;;5.10;1.85;;;;;;;;;;4960862;28;95177;-78
2024/01/18 03:08:02;;;;;;;4.47;1.60;;;;;;;;;;4963520;28;92264;-79
2024/01/18 03:10:29;;;;;;;5.00;1.50;;;;;;;;;;4960589;28;95312;-79
2024/01/18 03:12:56;;;;;;;4.60;1.48;;;;;;;;;;4981703;28;91313;-79
2024/01/18 03:15:23;;;;;;;;;;;;;;;;;;4948193;28;94190;-80
2024/01/18 03:17:49;;;;;;;5.40;1.35;;;;;;;;;;4963326;28;109791;-80
2024/01/18 03:20:16;;;;;;;4.15;1.38;;;;;;;;;;4959379;28;95038;-77
2024/01/18 03:22:43;;;;;;;3.88;1.52;;;;;;;;;;4959941;28;95168;-78
2024/01/18 03:25:09;;;;;;;5.53;1.45;;;;;;;;;;4961007;28;93041;-77
2024/01/18 03:27:37;;;;;;;4.22;1.30;;;;;;;;;;4960513;28;95150;-79
2024/01/18 03:30:04;;;;;;;4.43;1.48;;;;;;;;;;4947817;28;95083;-78
2024/01/18 03:32:31;;;;;;;3.63;1.50;;;;;;;;;;4961212;28;92556;-79
2024/01/18 03:34:57;;;;;;;3.55;1.30;;;;;;;;;;4955130;28;93703;-79
2024/01/18 03:37:24;;;;;;;4.85;1.55;;;;;;;;;;4942119;28;92293;-78
2024/01/18 03:39:51;;;;;;;6.85;1.60;;;;;;;;;;4959390;28;92039;-79
2024/01/18 03:42:17;;;;;;;6.18;1.42;;;;;;;;;;4961918;28;98784;-79
2024/01/18 03:44:44;;;;;;;5.45;1.50;;;;;;;;;;4960511;28;95526;-78
2024/01/18 03:47:10;;;;;;;7.40;1.80;;;;;;;;;;4962016;28;92069;-77
2024/01/18 03:49:37;;;;;;;6.55;1.70;;;;;;;;;;4962870;28;92802;-79
2024/01/18 03:52:04;;;;;;;5.50;1.67;;;;;;;;;;4965495;28;92871;-78
2024/01/18 03:54:30;;;;;;;7.72;1.80;;;;;;;;;;4959707;28;94977;-79
2024/01/18 03:56:57;;;;;;;3.70;1.40;;;;;;;;;;4965423;28;92706;-78
2024/01/18 03:59:23;;;;;;;4.63;1.40;;;;;;;;;;4952192;28;92438;-78
2024/01/18 04:01:50;;;;;;;4.93;1.45;;;;;;;;;;4941416;28;92356;-78
2024/01/18 04:04:17;;;;;;;5.47;1.75;;;;;;;;;;4957335;28;95199;-78
2024/01/18 04:06:44;;;;;;;4.28;1.50;;;;;;;;;;4956832;28;92236;-79
2024/01/18 04:09:10;;;;;;;3.67;1.40;;;;;;;;;;4940137;28;95069;-79
2024/01/18 04:11:37;;;;;;;4.55;1.40;;;;;;;;;;4964971;28;93851;-78
2024/01/18 04:14:03;;;;;;;3.13;1.50;;;;;;;;;;4966318;28;92636;-79
2024/01/18 04:16:31;;;;;;;4.47;1.48;;;;;;;;;;4962474;28;93778;-79
2024/01/18 04:18:57;;;;;;;3.95;1.35;;;;;;;;;;4965431;28;92089;-79
2024/01/18 04:21:24;;;;;;;5.22;1.65;;;;;;;;;;4963581;28;94897;-79
2024/01/18 04:23:51;;;;;;;3.70;1.38;;;;;;;;;;4964646;28;93461;-79
2024/01/18 04:26:18;;;;;;;3.22;1.23;;;;;;;;;;4965572;28;91276;-79
2024/01/18 04:28:44;;;;;;;9.48;1.60;;;;;;;;;;4963385;28;92386;-79
2024/01/18 04:31:11;;;;;;;4.00;1.50;;;;;;;;;;4965045;28;93664;-80
2024/01/18 04:33:37;;;;;;;3.35;1.40;;;;;;;;;;4965621;28;96149;-79
2024/01/18 04:36:04;;;;;;;5.32;1.30;;;;;;;;;;4962756;28;95253;-79
2024/01/18 04:38:30;;;;;;;4.05;1.50;;;;;;;;;;4964054;28;92266;-80
2024/01/18 04:40:57;;;;;;;3.92;1.40;;;;;;;;;;4965775;28;93152;-80
2024/01/18 04:43:23;;;;;;;2.65;1.20;;;;;;;;;;4964025;28;92687;-80
2024/01/18 04:45:50;;;;;;;3.25;1.20;;;;;;;;;;4965339;28;92324;-81
2024/01/18 04:48:17;;;;;;;4.70;1.50;;;;;;;;;;4963440;28;92762;-80
2024/01/18 04:50:43;;;;;;;3.90;1.45;;;;;;;;;;4963536;28;94051;-81
2024/01/18 04:53:10;;;;;;;3.25;1.40;;;;;;;;;;4962093;28;92493;-81
2024/01/18 04:55:36;;;;;;;5.15;1.38;;;;;;;;;;4971405;28;92472;-80
2024/01/18 04:58:03;;;;;;;5.10;1.50;;;;;;;;;;4952078;28;95383;-79
2024/01/18 05:00:30;;;;;;;5.10;1.40;;;;;;;;;;4941417;28;97614;-78
2024/01/18 05:02:56;;;;;;;3.63;1.30;;;;;;;;;;4943904;28;93217;-78
2024/01/18 05:05:23;;;;;;;5.00;1.60;;;;;;;;;;4945755;28;92475;-78
2024/01/18 05:07:49;;;;;;;4.15;1.40;;;;;;;;;;4961967;28;91947;-80
2024/01/18 05:10:16;;;;;;;4.38;1.55;;;;;;;;;;4964689;28;93137;-79
2024/01/18 05:12:45;;;;;;;4.82;1.60;;;;;;;;;;4979787;28;92648;-80
2024/01/18 05:15:12;;;;;;;3.47;1.40;;;;;;;;;;4964289;28;91833;-80
2024/01/18 05:17:39;;;;;;;5.13;1.60;;;;;;;;;;4967250;28;93141;-80
2024/01/18 05:20:06;;;;;;;6.22;1.50;;;;;;;;;;4964841;28;92688;-80
2024/01/18 05:22:33;;;;;;;;;;;;;;;;;;4962249;28;95521;-80
2024/01/18 05:25:00;;;;;;;6.25;1.60;;;;;;;;;;4966197;28;110884;-78
2024/01/18 05:27:30;;;;;;;4.20;1.30;;;;;;;;;;4963646;28;92387;-80
2024/01/18 05:29:57;;;;;;;4.97;1.35;;;;;;;;;;4964781;28;92752;-79
2024/01/18 05:32:24;;;;;;;3.63;1.30;;;;;;;;;;4962892;28;92199;-80
2024/01/18 05:34:51;;;;;;;6.00;1.52;;;;;;;;;;4957731;28;92391;-80
2024/01/18 05:37:18;;;;;;;9.38;2.00;;;;;;;;;;4959840;28;95514;-80
2024/01/18 05:39:44;;;;;;;6.25;1.60;;;;;;;;;;4965861;28;91752;-79
2024/01/18 05:42:11;;;;;;;4.40;1.52;;;;;;;;;;4945088;28;95447;-80
2024/01/18 05:44:37;;;;;;;7.97;1.52;;;;;;;;;;4961917;28;92040;-79
2024/01/18 05:47:04;;;;;;;4.80;1.70;;;;;;;;;;4961538;28;94583;-79
2024/01/18 05:49:31;;;;;;;4.50;1.63;;;;;;;;;;4961601;28;95455;-79
2024/01/18 05:51:57;;;;;;;5.32;1.67;;;;;;;;;;4963674;28;92330;-79
2024/01/18 05:54:24;;;;;;;5.97;1.80;;;;;;;;;;4962690;28;93567;-79
2024/01/18 05:56:51;;;;;;;4.65;1.80;;;;;;;;;;4948804;28;94750;-81
2024/01/18 05:59:17;;;;;;;4.97;1.98;;;;;;;;;;4961768;28;93373;-78
2024/01/18 06:01:44;;;;;;;6.78;2.35;;;;;;;;;;4964283;28;94660;-80
2024/01/18 06:04:10;;;;;;;6.65;1.83;;;;;;;;;;4963346;28;91416;-81
2024/01/18 06:06:37;;;;;;;4.95;2.17;;;;;;;;;;4962183;28;92137;-82
2024/01/18 06:09:04;;;;;;;7.60;2.13;;;;;;;;;;4962318;28;93050;-82
2024/01/18 06:11:30;;;;;;;5.60;2.15;;;;;;;;;;4966862;28;94969;-81
2024/01/18 06:13:57;;;;;;;6.65;2.25;;;;;;;;;;4981217;28;94873;-80
2024/01/18 06:16:23;;;;;;;5.32;2.20;;;;;;;;;;4961346;28;95655;-80
2024/01/18 06:18:50;;;;;;;7.20;2.13;;;;;;;;;;4961413;28;92344;-80
2024/01/18 06:21:16;;;;;;;5.75;2.20;;;;;;;;;;4960395;28;94673;-80
2024/01/18 06:23:43;;;;;;;5.30;2.00;;;;;;;;;;4966034;28;93315;-81
2024/01/18 06:26:10;;;;;;;5.78;2.08;;;;;;;;;;4962691;28;92478;-80
2024/01/18 06:28:37;;;;;;;5.47;2.20;;;;;;;;;;4960600;28;92415;-79
2024/01/18 06:31:08;;;;;;;8.88;2.22;;;;;;;;;;4961055;28;92399;-79
2024/01/18 06:33:35;;;;;;;6.82;2.50;;;;;;;;;;4961351;28;92398;-80
2024/01/18 06:36:02;;;;;;;5.13;1.90;;;;;;;;;;4952426;28;97998;-81
2024/01/18 06:38:29;;;;;;;7.63;2.35;;;;;;;;;;4960864;28;92195;-80
2024/01/18 06:40:58;;;;;;;6.63;2.28;;;;;;;;;;4962476;28;92407;-80
2024/01/18 06:43:26;;;;;;;10.02;2.40;;;;;;;;;;4963761;28;93579;-78
2024/01/18 06:45:55;;;;;;;6.18;2.53;;;;;;;;;;4960466;28;94990;-78
2024/01/18 06:48:22;;;;;;;7.93;2.53;;;;;;;;;;4961493;28;92870;-78
2024/01/18 06:50:50;;;;;;;7.90;2.40;;;;;;;;;;4961911;28;92211;-79
2024/01/18 06:53:17;;;;;;;6.22;2.40;;;;;;;;;;4962408;28;92226;-80
2024/01/18 06:55:43;;;;;;;8.07;2.42;;;;;;;;;;4967711;28;92882;-80
2024/01/18 06:58:10;;;;;;;9.02;2.75;;;;;;;;;;4980291;28;92267;-80
2024/01/18 07:00:36;;;;;;;8.68;2.35;;;;;;;;;;4955415;28;94515;-79
2024/01/18 07:03:04;;;;;;;7.82;2.42;;;;;;;;;;4942671;28;92491;-79
2024/01/18 07:05:31;;;;;;;7.80;2.30;;;;;;;;;;4963456;28;92211;-79
2024/01/18 07:07:57;;;;;;;7.32;2.28;;;;;;;;;;4962111;28;92733;-80
2024/01/18 07:10:24;;;;;;;5.85;2.10;;;;;;;;;;4960497;28;92524;-80
2024/01/18 07:12:50;;;;;;;6.78;2.20;;;;;;;;;;4976026;28;92248;-80
2024/01/18 07:15:17;;;;;;;6.68;2.40;;;;;;;;;;4960956;28;94258;-80
2024/01/18 07:17:44;;;;;;;7.45;2.50;;;;;;;;;;4962910;28;91536;-80
2024/01/18 07:20:11;;;;;;;7.55;2.20;;;;;;;;;;4962426;28;92572;-80
2024/01/18 07:22:37;;;;;;;5.05;2.08;;;;;;;;;;4943811;28;94982;-80
2024/01/18 07:25:05;;;;;;;9.73;2.10;;;;;;;;;;4958929;28;94470;-81
2024/01/18 07:27:32;;;;;;;6.13;2.17;;;;;;;;;;4962701;28;98459;-80
2024/01/18 07:29:59;;;;;;;5.15;2.10;;;;;;;;;;4960309;28;92326;-81
2024/01/18 07:32:25;;;;;;;6.38;2.35;;;;;;;;;;4943022;28;95242;-82
2024/01/18 07:34:52;;;;;;;5.57;2.20;;;;;;;;;;4956855;28;92930;-82
2024/01/18 07:37:19;;;;;;;6.60;2.08;;;;;;;;;;4960641;28;92551;-81
2024/01/18 07:39:45;;;;;;;4.97;2.10;;;;;;;;;;4957052;28;92396;-81
2024/01/18 07:42:12;;;;;;;5.05;2.10;;;;;;;;;;4953967;28;93006;-81
2024/01/18 07:44:42;;;;;;;6.10;2.30;;;;;;;;;;4944025;28;92242;-82
2024/01/18 07:47:10;;;;;;;5.28;2.00;;;;;;;;;;4960501;28;92489;-80
2024/01/18 07:49:41;;;;;;;5.45;1.85;;;;;;;;;;4961014;28;95464;-80
2024/01/18 07:52:09;;;;;;;6.80;2.10;;;;;;;;;;4961170;28;97512;-79
2024/01/18 07:54:36;;;;;;;6.25;2.10;;;;;;;;;;4962605;28;92728;-79
2024/01/18 07:57:03;;;;;;;;;;;;;;;;;;4979921;28;92633;-79
2024/01/18 07:59:29;;;;;;;5.78;2.00;;;;;;;;;;4985980;28;92132;-80
2024/01/18 08:01:56;;;;;;;4.82;2.00;;;;;;;;;;4979195;28;92704;-79
2024/01/18 08:04:23;;;;;;;5.13;2.10;;;;;;;;;;4964704;28;92274;-79
2024/01/18 08:06:49;;;;;;;6.22;2.20;;;;;;;;;;4963819;28;92685;-80
2024/01/18 08:09:16;;;;;;;4.38;1.75;;;;;;;;;;4964147;28;92713;-80
2024/01/18 08:11:43;;;;;;;4.05;1.80;;;;;;;;;;4976782;28;92085;-80
2024/01/18 08:14:11;;;;;;;6.55;2.03;;;;;;;;;;4969658;28;97886;-79
2024/01/18 08:16:41;;;;;;;4.35;1.80;;;;;;;;;;4962927;28;92495;-80
2024/01/18 08:19:08;;;;;;;4.45;2.00;;;;;;;;;;4964489;28;92567;-80
2024/01/18 08:21:40;;;;;;;4.53;1.85;;;;;;;;;;4946132;28;94942;-81
2024/01/18 08:24:07;;;;;;;4.88;1.88;;;;;;;;;;4962359;28;92577;-79
2024/01/18 08:26:33;;;;;;;5.13;2.25;;;;;;;;;;4963556;28;91940;-79
2024/01/18 08:29:03;;;;;;;5.80;2.10;;;;;;;;;;4962662;28;95157;-80
2024/01/18 08:31:30;;;;;;;5.80;2.20;;;;;;;;;;4964738;28;91832;-80
2024/01/18 08:33:57;;;;;;;4.22;1.98;;;;;;;;;;4966127;28;92359;-80
2024/01/18 08:36:24;;;;;;;4.95;1.90;;;;;;;;;;4945245;28;92059;-81
2024/01/18 08:38:54;;;;;;;5.45;2.10;;;;;;;;;;4962997;28;94378;-82
2024/01/18 08:41:21;;;;;;;5.82;2.10;;;;;;;;;;4963629;28;92886;-81
2024/01/18 08:43:48;;;;;;;4.72;1.85;;;;;;;;;;4963070;28;92412;-82
2024/01/18 08:46:15;;;;;;;4.88;2.22;;;;;;;;;;4964078;28;92365;-80
2024/01/18 08:48:41;;;;;;;6.55;2.20;;;;;;;;;;4962113;28;92553;-81
2024/01/18 08:51:13;;;;;;;4.13;1.90;;;;;;;;;;4964550;28;92125;-81
2024/01/18 08:53:40;;;;;;;4.72;2.05;;;;;;;;;;4966264;28;92383;-81
2024/01/18 08:56:07;;;;;;;5.18;1.98;;;;;;;;;;4972709;28;91444;-81
2024/01/18 08:58:35;;;;;;;4.35;2.00;;;;;;;;;;4975649;28;92176;-80
2024/01/18 09:01:02;;;;;;;4.70;1.80;;;;;;;;;;4963150;28;93117;-80
2024/01/18 09:03:28;;;;;;;3.58;1.80;;;;;;;;;;4944886;28;94680;-82
2024/01/18 09:05:55;;;;;;;4.20;1.70;;;;;;;;;;4962851;28;97126;-81
2024/01/18 09:08:22;;;;;;;5.20;1.90;;;;;;;;;;4962161;28;95454;-80
2024/01/18 09:10:49;;;;;;;4.85;2.03;;;;;;;;;;4963805;28;93379;-81
2024/01/18 09:13:16;;;;;;;4.47;1.77;;;;;;;;;;4983082;28;93763;-81
2024/01/18 09:15:45;;;;;;;4.82;1.88;;;;;;;;;;4986563;28;92770;-81
2024/01/18 09:18:13;;;;;;;5.05;1.75;;;;;;;;;;4983629;28;92382;-82
2024/01/18 09:20:40;;;;;;;4.97;2.00;;;;;;;;;;4964907;28;92336;-83
2024/01/18 09:23:06;;;;;;;5.18;2.00;;;;;;;;;;4942612;28;92205;-82
2024/01/18 09:25:39;;;;;;;4.32;1.88;;;;;;;;;;4926556;28;94937;-81
2024/01/18 09:28:07;;;;;;;5.50;1.90;;;;;;;;;;4939067;28;95158;-83
2024/01/18 09:30:37;;;;;;;5.75;2.00;;;;;;;;;;4941177;28;92580;-82
2024/01/18 09:33:08;;;;;;;4.32;1.80;;;;;;;;;;4943856;28;92869;-80
2024/01/18 09:35:36;;;;;;;4.15;1.80;;;;;;;;;;4954602;28;92787;-82
2024/01/18 09:38:04;;;;;;;5.43;2.08;;;;;;;;;;4947314;28;92295;-81
2024/01/18 09:40:31;;;;;;;4.90;1.88;;;;;;;;;;4937464;28;92697;-82
2024/01/18 09:42:59;;;;;;;5.07;1.90;;;;;;;;;;4969640;28;92419;-81
2024/01/18 09:45:28;;;;;;;5.25;1.90;;;;;;;;;;4961754;28;92739;-81
2024/01/18 09:47:55;;;;;;;4.97;1.73;;;;;;;;;;4959973;28;92736;-80
2024/01/18 09:50:23;;;;;;;4.45;1.80;;;;;;;;;;4961105;28;92848;-81
2024/01/18 09:52:50;;;;;;;3.08;1.73;;;;;;;;;;4959489;28;97645;-83
2024/01/18 09:55:17;;;;;;;3.70;1.80;;;;;;;;;;4943130;28;95350;-82
2024/01/18 09:57:47;;;;;;;4.10;1.77;;;;;;;;;;4944688;28;92913;-83
2024/01/18 10:00:15;;;;;;;3.67;1.73;;;;;;;;;;4964734;28;92722;-83
2024/01/18 10:02:42;;;;;;;4.15;1.70;;;;;;;;;;4959784;28;92374;-86
2024/01/18 10:05:29;;;;;;;4.28;1.63;;;;;;;;;;4969106;28;96009;-85
2024/01/18 10:07:55;;;;;;;;;;;;;;;;;;4979859;28;93673;-80
2024/01/18 10:10:22;;;;;;;2.78;1.40;;;;;;;;;;4979956;28;99258;-81
2024/01/18 10:12:48;;;;;;;3.55;1.60;;;;;;;;;;4995849;28;95926;-81
2024/01/18 10:15:33;;;;;;;4.80;1.58;;;;;;;;;;4998020;28;92724;-81
2024/01/18 10:18:02;;;;;;;4.30;1.73;;;;;;;;;;4976773;28;95615;-82
2024/01/18 10:20:29;;;;;;;3.72;1.52;;;;;;;;;;4977970;28;97381;-81
2024/01/18 10:22:58;;;;;;;3.72;1.50;;;;;;;;;;4981405;28;92976;-81
2024/01/18 10:25:29;;;;;;;2.97;1.42;;;;;;;;;;4963485;28;92767;-81
2024/01/18 10:27:56;;;;;;;2.60;1.40;;;;;;;;;;4962003;28;92581;-82
2024/01/18 10:30:23;;;;;;;4.18;1.40;;;;;;;;;;4961000;28;92586;-82
2024/01/18 10:32:51;;;;;;;3.10;1.40;;;;;;;;;;4978089;28;92680;-80
2024/01/18 10:35:24;;;;;;;3.25;1.30;;;;;;;;;;4955646;28;92528;-84
2024/01/18 10:38:00;;;;;;;2.72;1.40;;;;;;;;;;4963163;28;92224;-84
2024/01/18 10:40:28;;;;;;;3.40;1.58;;;;;;;;;;4978068;28;92176;-83
2024/01/18 10:42:55;;;;;;;3.42;1.30;;;;;;;;;;4966743;28;95468;-82
2024/01/18 10:45:21;;;;;;;;;;;;;;;;;;4953707;28;92068;-83
2024/01/18 10:47:48;;;;;;;2.50;1.20;;;;;;;;;;4963418;28;92710;-83
2024/01/18 10:50:16;;;;;;;3.55;1.33;;;;;;;;;;4961540;28;93014;-81
2024/01/18 10:52:43;;;;;;;3.28;1.40;;;;;;;;;;4962031;28;92674;-82
2024/01/18 10:55:12;;;;;;;;;;;;;;;;;;4962146;28;95448;-84
2024/01/18 10:57:38;;;;;;;3.17;1.23;;;;;;;;;;4979775;28;92176;-85
2024/01/18 11:00:08;;;;;;;2.20;0.90;;;;;;;;;;4960904;28;94602;-87
2024/01/18 11:02:39;;;;;;;2.25;1.02;;;;;;;;;;4959377;28;95325;-83
2024/01/18 11:05:08;;;;;;;1.15;0.88;;;;;;;;;;4962988;28;92170;-84
2024/01/18 11:07:38;;;;;;;2.67;0.93;;;;;;;;;;4942279;28;97149;-85
2024/01/18 11:10:11;;;;;;;1.20;0.85;;;;;;;;;;4960383;28;92255;-84
2024/01/18 11:12:38;;;;;;;1.23;0.80;;;;;;;;;;4966471;28;94820;-83
2024/01/18 11:15:11;;;;;;;1.63;0.70;;;;;;;;;;4959681;28;95545;-84
2024/01/18 11:17:51;;;;;;;1.25;0.68;;;;;;;;;;4943653;28;92338;-84
2024/01/18 11:20:18;;;;;;;2.50;0.80;;;;;;;;;;4961107;28;92905;-83
2024/01/18 11:22:45;;;;;;;1.48;0.80;;;;;;;;;;4959011;28;92739;-83
2024/01/18 11:25:12;;;;;;;2.55;0.80;;;;;;;;;;4961051;28;91401;-85
2024/01/18 11:27:40;;;;;;;1.83;0.60;;;;;;;;;;4965605;28;92389;-82
2024/01/18 11:30:10;;;;;;;1.08;0.65;;;;;;;;;;4962243;28;93174;-82
2024/01/18 11:32:39;;;;;;;1.45;0.80;;;;;;;;;;4961292;28;94741;-84
2024/01/18 11:35:13;;;;;;;2.42;1.10;;;;;;;;;;4956394;28;95163;-84
2024/01/18 11:37:40;;;;;;;4.28;1.27;;;;;;;;;;4966675;28;92140;-84
2024/01/18 11:40:07;;;;;;;4.00;1.15;;;;;;;;;;4963966;28;93434;-83
2024/01/18 11:42:34;;;;;;;4.53;1.05;;;;;;;;;;4962399;28;92578;-85
2024/01/18 11:45:05;;;;;;;3.65;1.00;;;;;;;;;;4965378;28;92732;-85
2024/01/18 11:47:32;;;;;;;2.63;1.00;;;;;;;;;;4964904;28;92358;-85
2024/01/18 11:50:05;;;;;;;2.30;1.00;;;;;;;;;;4967246;28;94339;-85
2024/01/18 11:52:33;;;;;;;1.40;0.80;;;;;;;;;;4962093;28;92141;-84
2024/01/18 11:55:00;;;;;;;4.85;1.20;;;;;;;;;;4963141;28;95000;-85
2024/01/18 11:57:27;;;;;;;;;;;;;;;;;;4963382;28;94885;-84
2024/01/18 11:59:57;;;;;;;2.42;1.02;;;;;;;;;;4966219;28;96869;-85
2024/01/18 12:02:24;;;;;;;2.33;0.90;;;;;;;;;;4946826;28;95592;-85
2024/01/18 12:04:51;;;;;;;3.17;1.00;;;;;;;;;;4964528;28;92195;-85
2024/01/18 12:07:19;;;;;;;2.88;1.10;;;;;;;;;;4948368;28;94324;-86
2024/01/18 12:09:46;;;;;;;1.42;0.90;;;;;;;;;;4965292;28;92737;-86
2024/01/18 12:12:13;;;;;;;1.80;0.90;;;;;;;;;;4981466;28;93821;-85
2024/01/18 12:14:40;;;;;;;1.98;0.80;;;;;;;;;;4967683;28;94740;-84
2024/01/18 12:17:11;;;;;;;2.03;0.90;;;;;;;;;;4966833;28;92124;-85
2024/01/18 12:19:41;;;;;;;1.65;0.85;;;;;;;;;;4983751;28;92527;-85
2024/01/18 12:22:09;;;;;;;2.95;1.10;;;;;;;;;;4978988;28;97950;-85
2024/01/18 12:24:39;;;;;;;0.80;0.80;;;;;;;;;;4946657;28;92205;-85
2024/01/18 12:27:06;;;;;;;2.25;0.80;;;;;;;;;;4947047;28;95519;-84
2024/01/18 12:29:32;;;;;;;;;;;;;;;;;;4965898;28;94318;-86
2024/01/18 12:32:00;;;;;;;2.25;0.90;;;;;;;;;;4984905;28;92024;-87
2024/01/18 12:34:27;;;;;;;2.40;0.77;;;;;;;;;;4969895;28;92339;-86
2024/01/18 12:36:54;;;;;;;2.03;0.77;;;;;;;;;;4965681;28;92379;-86
2024/01/18 12:39:21;;;;;;;1.77;0.80;;;;;;;;;;4965984;28;94987;-87
2024/01/18 12:41:52;;;;;;;2.00;0.88;;;;;;;;;;4966714;28;95310;-88
2024/01/18 12:44:19;;;;;;;2.17;0.80;;;;;;;;;;4967235;28;92176;-86
2024/01/18 12:46:47;;;;;;;1.80;0.70;;;;;;;;;;4963831;28;95998;-86
2024/01/18 12:49:15;;;;;;;1.30;0.70;;;;;;;;;;4967636;28;93129;-86
2024/01/18 12:51:43;;;;;;;2.15;0.80;;;;;;;;;;4950768;28;92507;-86
2024/01/18 12:54:10;;;;;;;1.50;0.80;;;;;;;;;;4970518;28;92490;-86
2024/01/18 12:56:36;;;;;;;1.05;0.60;;;;;;;;;;4980859;28;92424;-87
2024/01/18 12:59:10;;;;;;;2.78;0.90;;;;;;;;;;4986732;28;94402;-87
2024/01/18 13:01:36;;;;;;;;;;;;;;;;;;4986701;28;93378;-86
2024/01/18 13:04:12;;;;;;;2.30;0.90;;;;;;;;;;4985952;28;91589;-86
2024/01/18 13:06:45;;;;;;;1.50;0.70;;;;;;;;;;4964554;28;92213;-85
2024/01/18 13:09:27;;;;;;;2.38;0.70;;;;;;;;;;4965928;28;92863;-87
2024/01/18 13:11:54;;;;;;;2.92;0.90;;;;;;;;;;4965956;28;94672;-85
2024/01/18 13:14:21;;;;;;;1.30;0.70;;;;;;;;;;4966896;28;97057;-86
2024/01/18 13:16:49;;;;;;;1.40;0.77;;;;;;;;;;4968972;28;97048;-87
2024/01/18 13:19:18;;;;;;;2.13;0.70;;;;;;;;;;4968583;28;92460;-86
2024/01/18 13:21:45;;;;;;;1.38;0.70;;;;;;;;;;4966243;28;94967;-87
2024/01/18 13:24:13;;;;;;;1.40;0.80;;;;;;;;;;4959674;28;92085;-85
2024/01/18 13:26:40;;;;;;;2.58;0.73;;;;;;;;;;4967161;28;94750;-87
2024/01/18 13:29:07;;;;;;;2.05;0.70;;;;;;;;;;4969640;28;92077;-86
2024/01/18 13:31:35;;;;;;;1.30;0.57;;;;;;;;;;4967786;28;92373;-86
2024/01/18 13:34:02;;;;;;;;;;;;;;;;;;4969068;28;92918;-85
2024/01/18 13:36:29;;;;;;;1.55;0.82;;;;;;;;;;4967522;28;96310;-87
2024/01/18 13:38:56;;;;;;;1.27;0.75;;;;;;;;;;4971529;28;92113;-86
2024/01/18 13:41:27;;;;;;;2.28;0.80;;;;;;;;;;4973436;28;92692;-84
2024/01/18 13:43:54;;;;;;;1.02;0.60;;;;;;;;;;4964498;28;92135;-81
2024/01/18 13:46:21;;;;;;;1.48;0.70;;;;;;;;;;4962395;28;92740;-83
2024/01/18 13:48:47;;;;;;;2.60;0.70;;;;;;;;;;4960824;28;95260;-82
2024/01/18 13:51:14;;;;;;;2.28;0.70;;;;;;;;;;4963061;28;92348;-81
2024/01/18 13:53:41;;;;;;;3.03;0.90;;;;;;;;;;4964399;28;95328;-85
2024/01/18 13:56:08;;;;;;;2.63;1.13;;;;;;;;;;4954835;28;95396;-84
2024/01/18 13:58:39;;;;;;;1.85;0.80;;;;;;;;;;4965684;28;92547;-86
2024/01/18 14:01:05;;;;;;;3.15;1.00;;;;;;;;;;4967755;28;95302;-84
2024/01/18 14:03:32;;;;;;;3.08;1.10;;;;;;;;;;4965472;28;92273;-84
2024/01/18 14:06:00;;;;;;;2.72;0.93;;;;;;;;;;4963336;28;92464;-85
2024/01/18 14:08:27;;;;;;;5.00;1.15;;;;;;;;;;4961829;28;93774;-85
2024/01/18 14:10:56;;;;;;;3.28;0.95;;;;;;;;;;4948319;28;92046;-84
2024/01/18 14:13:22;;;;;;;3.05;1.02;;;;;;;;;;4982766;28;95138;-85
2024/01/18 14:15:51;;;;;;;2.90;1.00;;;;;;;;;;4953188;28;94547;-84
2024/01/18 14:18:21;;;;;;;3.47;1.00;;;;;;;;;;4963233;28;91352;-83
2024/01/18 14:20:49;;;;;;;3.05;1.05;;;;;;;;;;4960899;28;96328;-83
2024/01/18 14:23:16;;;;;;;;;;;;;;;;;;4948005;28;95681;-83
2024/01/18 14:25:42;;;;;;;2.83;0.90;;;;;;;;;;4961089;28;117586;-84
2024/01/18 14:28:09;;;;;;;3.53;1.10;;;;;;;;;;4961003;28;93048;-82
2024/01/18 14:30:37;;;;;;;2.95;1.00;;;;;;;;;;4960402;28;92266;-83
2024/01/18 14:33:04;;;;;;;1.95;1.00;;;;;;;;;;4961245;28;92654;-82
2024/01/18 14:35:31;;;;;;;1.98;0.98;;;;;;;;;;4955666;28;92815;-83
2024/01/18 14:37:58;;;;;;;2.65;1.00;;;;;;;;;;4961410;28;92423;-84
2024/01/18 14:40:25;;;;;;;5.10;1.15;;;;;;;;;;4962326;28;92471;-84
2024/01/18 14:42:51;;;;;;;3.90;1.20;;;;;;;;;;4961241;28;92251;-83
2024/01/18 14:45:20;;;;;;;2.25;0.98;;;;;;;;;;4966174;28;92158;-83
2024/01/18 14:47:47;;;;;;;3.20;1.20;;;;;;;;;;4944288;28;92741;-84